Startpagina
METAR-TAF:

METAR-TAF

Vliegvelden :

Luchthaven Satu Mare

Satu Mare, Roemenië

breedte: 47-48N, lengte: 022-53E, hoogte: 123 m

Actueel weer

Dit bericht is 23 minuten geleden gemaakt, om 14:00 UTC
Wind 4 kt uit het noordnoordoosten, variërend tussen het noorden en het oostnoordoosten
Temperatuur 32°C
Vochtigheid 29%
Druk 1016 hPa
Zicht 10 km of meer
geen wolken onder 1500 m en geen cumulonimbus

METAR: LRSM 181400Z 02004KT 350V060 CAVOK 32/12 Q1016

Tijdstip: 17:23 (14:23 UTC)

Verwachting

Dit bericht is 3 uur en het 23 minuten geleden gemaakt, om 11:00 UTC
Verwachting geldig van 18 om 12 UTC tot 18 om 21 UTC
Wind 8 kt uit het noorden
Zicht 10 km of meer
geen wolken onder 1500 m en geen cumulonimbus
Kans 40% :
Tijdelijke
van 18 om 13 UTC tot 18 om 16 UTC
Verspreide wolken op 4000 ft, Cumulonimbus.

TAF: LRSM 181100Z 1812/1821 01008KT CAVOK PROB40 TEMPO 1813/1816 SCT040CB

Waarnemingen en weersverwachtingen van meer dan 4000 vliegvelden (METAR en TAF).

De beschikbare stations zijn de gele en rode punten op de kaart.

Ga met uw muis naar het station om de naam te zien.

Klik dan om waarnemingen en weersverwachtingen te zien.

kaart wijzigen: klik op de groene knoppen met een zwart kruis om in te zoomen, op de groene knop met een streepje om uit te zoomen of op de groene pijlen voor aangrenzende kaarten.


METAR-TAF: